sensor_id;sensor_type;location;lat;lon;timestamp;P1;durP1;ratioP1;P2;durP2;ratioP2
79047;SDS011;68680;50.764;6.120;2023-03-20T00:00:12;41.55;;;21.15;;
79047;SDS011;68680;50.764;6.120;2023-03-20T00:02:48;36.45;;;20.08;;
79047;SDS011;68680;50.764;6.120;2023-03-20T00:05:15;38.17;;;22.25;;
79047;SDS011;68680;50.764;6.120;2023-03-20T00:07:44;35.10;;;20.27;;
79047;SDS011;68680;50.764;6.120;2023-03-20T00:10:11;33.78;;;18.13;;
79047;SDS011;68680;50.764;6.120;2023-03-20T00:12:37;33.42;;;18.70;;
79047;SDS011;68680;50.764;6.120;2023-03-20T00:15:04;32.72;;;18.88;;
79047;SDS011;68680;50.764;6.120;2023-03-20T00:17:40;30.70;;;18.50;;
79047;SDS011;68680;50.764;6.120;2023-03-20T00:20:08;31.58;;;18.70;;
79047;SDS011;68680;50.764;6.120;2023-03-20T00:22:39;30.65;;;19.48;;
79047;SDS011;68680;50.764;6.120;2023-03-20T00:25:05;35.42;;;20.25;;
79047;SDS011;68680;50.764;6.120;2023-03-20T00:30:02;38.03;;;20.83;;
79047;SDS011;68680;50.764;6.120;2023-03-20T00:32:37;34.47;;;19.42;;
79047;SDS011;68680;50.764;6.120;2023-03-20T00:35:10;35.58;;;19.65;;
79047;SDS011;68680;50.764;6.120;2023-03-20T00:37:43;35.85;;;19.88;;
79047;SDS011;68680;50.764;6.120;2023-03-20T00:40:10;32.67;;;20.38;;
79047;SDS011;68680;50.764;6.120;2023-03-20T00:42:37;34.08;;;19.15;;
79047;SDS011;68680;50.764;6.120;2023-03-20T00:45:03;28.63;;;17.50;;
79047;SDS011;68680;50.764;6.120;2023-03-20T00:47:34;31.75;;;18.38;;
79047;SDS011;68680;50.764;6.120;2023-03-20T00:50:05;36.60;;;19.25;;
79047;SDS011;68680;50.764;6.120;2023-03-20T00:52:40;30.60;;;18.00;;
79047;SDS011;68680;50.764;6.120;2023-03-20T00:55:07;31.63;;;18.63;;
79047;SDS011;68680;50.764;6.120;2023-03-20T00:57:34;27.05;;;17.02;;
79047;SDS011;68680;50.764;6.120;2023-03-20T01:00:10;29.30;;;17.33;;
79047;SDS011;68680;50.764;6.120;2023-03-20T01:02:50;25.80;;;16.38;;
79047;SDS011;68680;50.764;6.120;2023-03-20T01:05:19;30.65;;;16.95;;
79047;SDS011;68680;50.764;6.120;2023-03-20T01:07:46;32.47;;;17.35;;
79047;SDS011;68680;50.764;6.120;2023-03-20T01:10:12;29.45;;;16.38;;
79047;SDS011;68680;50.764;6.120;2023-03-20T01:12:39;28.80;;;16.42;;
79047;SDS011;68680;50.764;6.120;2023-03-20T01:15:11;24.20;;;15.00;;
79047;SDS011;68680;50.764;6.120;2023-03-20T01:17:43;25.88;;;14.02;;
79047;SDS011;68680;50.764;6.120;2023-03-20T01:20:13;28.13;;;15.95;;
79047;SDS011;68680;50.764;6.120;2023-03-20T01:22:43;24.88;;;14.48;;
79047;SDS011;68680;50.764;6.120;2023-03-20T01:25:09;25.23;;;14.48;;
79047;SDS011;68680;50.764;6.120;2023-03-20T01:27:34;26.58;;;14.68;;
79047;SDS011;68680;50.764;6.120;2023-03-20T01:30:01;24.00;;;14.48;;
79047;SDS011;68680;50.764;6.120;2023-03-20T01:32:27;23.17;;;13.85;;
79047;SDS011;68680;50.764;6.120;2023-03-20T01:34:52;26.85;;;15.77;;
79047;SDS011;68680;50.764;6.120;2023-03-20T01:37:21;26.27;;;15.30;;
79047;SDS011;68680;50.764;6.120;2023-03-20T01:39:51;27.02;;;14.85;;
79047;SDS011;68680;50.764;6.120;2023-03-20T01:42:19;23.80;;;14.25;;
79047;SDS011;68680;50.764;6.120;2023-03-20T01:44:45;33.55;;;15.55;;
79047;SDS011;68680;50.764;6.120;2023-03-20T01:47:14;30.88;;;16.38;;
79047;SDS011;68680;50.764;6.120;2023-03-20T01:52:50;26.00;;;15.35;;
79047;SDS011;68680;50.764;6.120;2023-03-20T01:55:25;30.95;;;17.15;;
79047;SDS011;68680;50.764;6.120;2023-03-20T01:57:53;31.25;;;16.95;;
79047;SDS011;68680;50.764;6.120;2023-03-20T02:00:26;27.17;;;15.32;;
79047;SDS011;68680;50.764;6.120;2023-03-20T02:02:52;26.60;;;15.88;;
79047;SDS011;68680;50.764;6.120;2023-03-20T02:05:19;31.85;;;16.50;;
79047;SDS011;68680;50.764;6.120;2023-03-20T02:07:48;27.67;;;17.10;;
79047;SDS011;68680;50.764;6.120;2023-03-20T02:10:28;27.50;;;16.10;;
79047;SDS011;68680;50.764;6.120;2023-03-20T02:12:54;27.92;;;16.77;;
79047;SDS011;68680;50.764;6.120;2023-03-20T02:15:20;31.02;;;16.63;;
79047;SDS011;68680;50.764;6.120;2023-03-20T02:17:46;27.95;;;16.20;;
79047;SDS011;68680;50.764;6.120;2023-03-20T02:20:21;31.67;;;15.88;;
79047;SDS011;68680;50.764;6.120;2023-03-20T02:23:17;25.50;;;15.25;;
79047;SDS011;68680;50.764;6.120;2023-03-20T02:26:13;28.73;;;16.15;;
79047;SDS011;68680;50.764;6.120;2023-03-20T02:38:56;27.75;;;15.63;;
79047;SDS011;68680;50.764;6.120;2023-03-20T02:41:48;27.95;;;16.85;;
79047;SDS011;68680;50.764;6.120;2023-03-20T02:44:25;31.20;;;17.73;;
79047;SDS011;68680;50.764;6.120;2023-03-20T02:47:01;28.83;;;15.68;;
79047;SDS011;68680;50.764;6.120;2023-03-20T02:49:47;29.05;;;16.65;;
79047;SDS011;68680;50.764;6.120;2023-03-20T02:52:21;31.60;;;16.33;;
79047;SDS011;68680;50.764;6.120;2023-03-20T02:55:01;36.70;;;19.10;;
79047;SDS011;68680;50.764;6.120;2023-03-20T02:57:42;34.55;;;18.85;;
79047;SDS011;68680;50.764;6.120;2023-03-20T03:00:23;33.15;;;17.17;;
79047;SDS011;68680;50.764;6.120;2023-03-20T03:02:57;28.70;;;16.70;;
79047;SDS011;68680;50.764;6.120;2023-03-20T03:05:33;35.95;;;19.63;;
79047;SDS011;68680;50.764;6.120;2023-03-20T03:08:05;35.35;;;19.27;;
79047;SDS011;68680;50.764;6.120;2023-03-20T03:10:37;40.80;;;19.45;;
79047;SDS011;68680;50.764;6.120;2023-03-20T03:13:10;30.10;;;17.67;;
79047;SDS011;68680;50.764;6.120;2023-03-20T03:15:42;36.50;;;19.42;;
79047;SDS011;68680;50.764;6.120;2023-03-20T03:18:12;35.28;;;19.70;;
79047;SDS011;68680;50.764;6.120;2023-03-20T03:20:43;48.45;;;21.52;;
79047;SDS011;68680;50.764;6.120;2023-03-20T03:23:17;45.40;;;22.40;;
79047;SDS011;68680;50.764;6.120;2023-03-20T03:25:57;36.15;;;18.60;;
79047;SDS011;68680;50.764;6.120;2023-03-20T03:28:27;37.78;;;18.65;;
79047;SDS011;68680;50.764;6.120;2023-03-20T03:30:59;35.47;;;19.83;;
79047;SDS011;68680;50.764;6.120;2023-03-20T03:33:26;39.88;;;19.52;;
79047;SDS011;68680;50.764;6.120;2023-03-20T03:35:58;37.28;;;19.75;;
79047;SDS011;68680;50.764;6.120;2023-03-20T03:38:37;37.97;;;19.85;;
79047;SDS011;68680;50.764;6.120;2023-03-20T03:41:17;33.58;;;17.98;;
79047;SDS011;68680;50.764;6.120;2023-03-20T03:43:53;33.08;;;18.50;;
79047;SDS011;68680;50.764;6.120;2023-03-20T03:46:31;34.22;;;18.75;;
79047;SDS011;68680;50.764;6.120;2023-03-20T03:49:05;35.08;;;18.10;;
79047;SDS011;68680;50.764;6.120;2023-03-20T03:51:40;36.33;;;18.10;;
79047;SDS011;68680;50.764;6.120;2023-03-20T03:54:12;37.85;;;20.63;;
79047;SDS011;68680;50.764;6.120;2023-03-20T03:56:46;36.22;;;19.35;;
79047;SDS011;68680;50.764;6.120;2023-03-20T03:59:16;37.40;;;20.73;;
79047;SDS011;68680;50.764;6.120;2023-03-20T04:01:48;40.40;;;22.13;;
79047;SDS011;68680;50.764;6.120;2023-03-20T04:04:16;42.83;;;22.77;;
79047;SDS011;68680;50.764;6.120;2023-03-20T04:06:44;40.15;;;21.75;;
79047;SDS011;68680;50.764;6.120;2023-03-20T04:09:10;45.50;;;23.85;;
79047;SDS011;68680;50.764;6.120;2023-03-20T04:11:36;42.65;;;21.77;;
79047;SDS011;68680;50.764;6.120;2023-03-20T04:14:03;43.78;;;23.08;;
79047;SDS011;68680;50.764;6.120;2023-03-20T04:16:29;41.58;;;22.10;;
79047;SDS011;68680;50.764;6.120;2023-03-20T04:18:55;48.63;;;24.02;;
79047;SDS011;68680;50.764;6.120;2023-03-20T04:21:21;52.35;;;24.95;;
79047;SDS011;68680;50.764;6.120;2023-03-20T04:23:47;49.28;;;25.45;;
79047;SDS011;68680;50.764;6.120;2023-03-20T04:26:12;49.92;;;26.02;;
79047;SDS011;68680;50.764;6.120;2023-03-20T04:28:38;52.72;;;25.50;;
79047;SDS011;68680;50.764;6.120;2023-03-20T04:31:06;45.10;;;24.58;;
79047;SDS011;68680;50.764;6.120;2023-03-20T04:33:31;45.38;;;24.52;;
79047;SDS011;68680;50.764;6.120;2023-03-20T04:35:57;48.13;;;25.15;;
79047;SDS011;68680;50.764;6.120;2023-03-20T04:38:23;52.13;;;25.85;;
79047;SDS011;68680;50.764;6.120;2023-03-20T04:40:49;47.42;;;24.83;;
79047;SDS011;68680;50.764;6.120;2023-03-20T04:43:15;47.08;;;24.73;;
79047;SDS011;68680;50.764;6.120;2023-03-20T04:45:41;47.67;;;24.95;;
79047;SDS011;68680;50.764;6.120;2023-03-20T04:48:08;52.20;;;24.88;;
79047;SDS011;68680;50.764;6.120;2023-03-20T04:50:34;51.85;;;25.30;;
79047;SDS011;68680;50.764;6.120;2023-03-20T04:53:00;53.55;;;25.70;;
79047;SDS011;68680;50.764;6.120;2023-03-20T04:55:26;46.35;;;24.33;;
79047;SDS011;68680;50.764;6.120;2023-03-20T04:57:52;50.95;;;23.45;;
79047;SDS011;68680;50.764;6.120;2023-03-20T05:00:18;46.67;;;25.10;;
79047;SDS011;68680;50.764;6.120;2023-03-20T05:02:44;44.95;;;23.95;;
79047;SDS011;68680;50.764;6.120;2023-03-20T05:05:11;42.83;;;21.83;;
79047;SDS011;68680;50.764;6.120;2023-03-20T05:07:37;44.05;;;21.33;;
79047;SDS011;68680;50.764;6.120;2023-03-20T05:10:03;41.58;;;21.63;;
79047;SDS011;68680;50.764;6.120;2023-03-20T05:12:30;38.78;;;20.55;;
79047;SDS011;68680;50.764;6.120;2023-03-20T05:14:56;43.42;;;20.25;;
79047;SDS011;68680;50.764;6.120;2023-03-20T05:17:22;40.05;;;20.38;;
79047;SDS011;68680;50.764;6.120;2023-03-20T05:19:48;33.05;;;18.33;;
79047;SDS011;68680;50.764;6.120;2023-03-20T05:22:16;34.10;;;19.50;;
79047;SDS011;68680;50.764;6.120;2023-03-20T05:24:42;42.70;;;17.80;;
79047;SDS011;68680;50.764;6.120;2023-03-20T05:27:08;33.63;;;18.02;;
79047;SDS011;68680;50.764;6.120;2023-03-20T05:29:35;33.13;;;18.25;;
79047;SDS011;68680;50.764;6.120;2023-03-20T05:32:00;32.30;;;16.55;;
79047;SDS011;68680;50.764;6.120;2023-03-20T05:34:26;32.03;;;16.55;;
79047;SDS011;68680;50.764;6.120;2023-03-20T05:36:52;32.20;;;15.68;;
79047;SDS011;68680;50.764;6.120;2023-03-20T05:39:20;30.58;;;15.68;;
79047;SDS011;68680;50.764;6.120;2023-03-20T05:41:45;30.65;;;15.23;;
79047;SDS011;68680;50.764;6.120;2023-03-20T05:44:11;31.65;;;16.92;;
79047;SDS011;68680;50.764;6.120;2023-03-20T05:46:37;34.05;;;16.17;;
79047;SDS011;68680;50.764;6.120;2023-03-20T05:49:03;31.45;;;14.90;;
79047;SDS011;68680;50.764;6.120;2023-03-20T05:51:29;31.30;;;16.30;;
79047;SDS011;68680;50.764;6.120;2023-03-20T05:53:55;28.85;;;14.77;;
79047;SDS011;68680;50.764;6.120;2023-03-20T05:56:22;33.42;;;16.15;;
79047;SDS011;68680;50.764;6.120;2023-03-20T05:58:48;26.48;;;14.15;;
79047;SDS011;68680;50.764;6.120;2023-03-20T06:01:14;26.63;;;14.13;;
79047;SDS011;68680;50.764;6.120;2023-03-20T06:03:40;26.08;;;13.18;;
79047;SDS011;68680;50.764;6.120;2023-03-20T06:06:06;28.77;;;14.25;;
79047;SDS011;68680;50.764;6.120;2023-03-20T06:08:32;26.38;;;14.90;;
79047;SDS011;68680;50.764;6.120;2023-03-20T06:10:58;27.60;;;14.70;;
79047;SDS011;68680;50.764;6.120;2023-03-20T06:13:25;24.35;;;12.88;;
79047;SDS011;68680;50.764;6.120;2023-03-20T06:15:51;29.33;;;14.00;;
79047;SDS011;68680;50.764;6.120;2023-03-20T06:18:17;25.60;;;13.77;;
79047;SDS011;68680;50.764;6.120;2023-03-20T06:20:43;25.98;;;14.48;;
79047;SDS011;68680;50.764;6.120;2023-03-20T06:23:08;58.35;;;26.70;;
79047;SDS011;68680;50.764;6.120;2023-03-20T06:25:34;31.83;;;15.50;;
79047;SDS011;68680;50.764;6.120;2023-03-20T06:28:00;29.17;;;14.27;;
79047;SDS011;68680;50.764;6.120;2023-03-20T06:30:27;23.80;;;13.38;;
79047;SDS011;68680;50.764;6.120;2023-03-20T06:32:53;25.73;;;13.65;;
79047;SDS011;68680;50.764;6.120;2023-03-20T06:35:19;24.95;;;14.60;;
79047;SDS011;68680;50.764;6.120;2023-03-20T06:37:44;20.08;;;11.77;;
79047;SDS011;68680;50.764;6.120;2023-03-20T06:40:10;20.55;;;11.98;;
79047;SDS011;68680;50.764;6.120;2023-03-20T06:42:36;22.17;;;13.18;;
79047;SDS011;68680;50.764;6.120;2023-03-20T06:45:02;25.42;;;12.95;;
79047;SDS011;68680;50.764;6.120;2023-03-20T06:47:31;26.15;;;13.68;;
79047;SDS011;68680;50.764;6.120;2023-03-20T06:49:56;23.13;;;12.60;;
79047;SDS011;68680;50.764;6.120;2023-03-20T06:52:22;21.00;;;12.65;;
79047;SDS011;68680;50.764;6.120;2023-03-20T06:54:48;24.23;;;13.23;;
79047;SDS011;68680;50.764;6.120;2023-03-20T06:57:14;26.10;;;13.20;;
79047;SDS011;68680;50.764;6.120;2023-03-20T06:59:39;31.02;;;14.27;;
79047;SDS011;68680;50.764;6.120;2023-03-20T07:02:05;28.02;;;14.48;;
79047;SDS011;68680;50.764;6.120;2023-03-20T07:04:32;30.10;;;14.50;;
79047;SDS011;68680;50.764;6.120;2023-03-20T07:06:58;24.52;;;14.02;;
79047;SDS011;68680;50.764;6.120;2023-03-20T07:09:24;35.28;;;15.68;;
79047;SDS011;68680;50.764;6.120;2023-03-20T07:11:50;29.73;;;14.50;;
79047;SDS011;68680;50.764;6.120;2023-03-20T07:14:16;29.83;;;15.40;;
79047;SDS011;68680;50.764;6.120;2023-03-20T07:16:42;37.13;;;15.82;;
79047;SDS011;68680;50.764;6.120;2023-03-20T07:19:07;32.88;;;16.13;;
79047;SDS011;68680;50.764;6.120;2023-03-20T07:21:34;29.75;;;15.15;;
79047;SDS011;68680;50.764;6.120;2023-03-20T07:24:00;33.40;;;16.02;;
79047;SDS011;68680;50.764;6.120;2023-03-20T07:26:26;30.77;;;15.25;;
79047;SDS011;68680;50.764;6.120;2023-03-20T07:28:52;35.55;;;16.70;;
79047;SDS011;68680;50.764;6.120;2023-03-20T07:31:18;32.95;;;16.27;;
79047;SDS011;68680;50.764;6.120;2023-03-20T07:33:46;35.97;;;16.10;;
79047;SDS011;68680;50.764;6.120;2023-03-20T07:36:12;38.97;;;17.10;;
79047;SDS011;68680;50.764;6.120;2023-03-20T07:38:39;36.92;;;16.98;;
79047;SDS011;68680;50.764;6.120;2023-03-20T07:41:05;37.92;;;17.55;;
79047;SDS011;68680;50.764;6.120;2023-03-20T07:43:31;36.42;;;18.63;;
79047;SDS011;68680;50.764;6.120;2023-03-20T07:45:57;33.42;;;18.77;;
79047;SDS011;68680;50.764;6.120;2023-03-20T07:48:26;37.03;;;17.80;;
79047;SDS011;68680;50.764;6.120;2023-03-20T07:50:52;33.55;;;17.63;;
79047;SDS011;68680;50.764;6.120;2023-03-20T07:53:18;38.00;;;18.60;;
79047;SDS011;68680;50.764;6.120;2023-03-20T07:55:45;34.78;;;18.08;;
79047;SDS011;68680;50.764;6.120;2023-03-20T07:58:11;36.83;;;18.17;;
79047;SDS011;68680;50.764;6.120;2023-03-20T08:00:36;38.60;;;18.92;;
79047;SDS011;68680;50.764;6.120;2023-03-20T08:03:02;36.22;;;17.40;;
79047;SDS011;68680;50.764;6.120;2023-03-20T08:05:28;32.83;;;17.60;;
79047;SDS011;68680;50.764;6.120;2023-03-20T08:07:54;33.85;;;17.05;;
79047;SDS011;68680;50.764;6.120;2023-03-20T08:10:20;37.92;;;19.15;;
79047;SDS011;68680;50.764;6.120;2023-03-20T08:12:47;36.33;;;17.33;;
79047;SDS011;68680;50.764;6.120;2023-03-20T08:15:13;37.35;;;18.20;;
79047;SDS011;68680;50.764;6.120;2023-03-20T08:17:40;33.28;;;17.50;;
79047;SDS011;68680;50.764;6.120;2023-03-20T08:20:07;42.15;;;18.55;;
79047;SDS011;68680;50.764;6.120;2023-03-20T08:22:34;32.60;;;17.42;;
79047;SDS011;68680;50.764;6.120;2023-03-20T08:25:00;29.50;;;15.38;;
79047;SDS011;68680;50.764;6.120;2023-03-20T08:27:26;36.13;;;15.75;;
79047;SDS011;68680;50.764;6.120;2023-03-20T08:29:53;28.25;;;14.32;;
79047;SDS011;68680;50.764;6.120;2023-03-20T08:32:19;25.70;;;14.50;;
79047;SDS011;68680;50.764;6.120;2023-03-20T08:34:44;28.63;;;14.50;;
79047;SDS011;68680;50.764;6.120;2023-03-20T08:37:10;24.05;;;13.25;;
79047;SDS011;68680;50.764;6.120;2023-03-20T08:39:36;62.38;;;30.35;;
79047;SDS011;68680;50.764;6.120;2023-03-20T08:42:02;22.98;;;11.52;;
79047;SDS011;68680;50.764;6.120;2023-03-20T08:44:28;21.38;;;10.27;;
79047;SDS011;68680;50.764;6.120;2023-03-20T08:46:55;19.15;;;9.98;;
79047;SDS011;68680;50.764;6.120;2023-03-20T08:49:21;16.52;;;8.80;;
79047;SDS011;68680;50.764;6.120;2023-03-20T08:51:47;17.52;;;8.70;;
79047;SDS011;68680;50.764;6.120;2023-03-20T08:54:13;19.58;;;7.93;;
79047;SDS011;68680;50.764;6.120;2023-03-20T08:56:39;16.73;;;8.85;;
79047;SDS011;68680;50.764;6.120;2023-03-20T08:59:04;18.42;;;8.15;;
79047;SDS011;68680;50.764;6.120;2023-03-20T09:01:30;19.35;;;7.97;;
79047;SDS011;68680;50.764;6.120;2023-03-20T09:03:57;21.00;;;8.05;;
79047;SDS011;68680;50.764;6.120;2023-03-20T09:06:23;12.95;;;6.57;;
79047;SDS011;68680;50.764;6.120;2023-03-20T09:08:49;14.65;;;7.53;;
79047;SDS011;68680;50.764;6.120;2023-03-20T09:11:15;18.73;;;7.53;;
79047;SDS011;68680;50.764;6.120;2023-03-20T09:13:40;12.85;;;7.07;;
79047;SDS011;68680;50.764;6.120;2023-03-20T09:16:06;12.60;;;7.05;;
79047;SDS011;68680;50.764;6.120;2023-03-20T09:18:33;14.45;;;6.70;;
79047;SDS011;68680;50.764;6.120;2023-03-20T09:21:00;14.18;;;7.00;;
79047;SDS011;68680;50.764;6.120;2023-03-20T09:23:26;13.15;;;6.47;;
79047;SDS011;68680;50.764;6.120;2023-03-20T09:25:52;13.25;;;7.07;;
79047;SDS011;68680;50.764;6.120;2023-03-20T09:28:18;25.70;;;11.63;;
79047;SDS011;68680;50.764;6.120;2023-03-20T09:30:43;25.23;;;10.20;;
79047;SDS011;68680;50.764;6.120;2023-03-20T09:33:09;21.02;;;9.20;;
79047;SDS011;68680;50.764;6.120;2023-03-20T09:35:36;19.25;;;7.57;;
79047;SDS011;68680;50.764;6.120;2023-03-20T09:38:03;17.38;;;7.95;;
79047;SDS011;68680;50.764;6.120;2023-03-20T09:40:29;13.43;;;8.27;;
79047;SDS011;68680;50.764;6.120;2023-03-20T09:43:08;16.65;;;8.07;;
79047;SDS011;68680;50.764;6.120;2023-03-20T09:45:48;14.38;;;7.45;;
79047;SDS011;68680;50.764;6.120;2023-03-20T09:48:27;18.02;;;7.60;;
79047;SDS011;68680;50.764;6.120;2023-03-20T09:51:04;16.63;;;6.80;;
79047;SDS011;68680;50.764;6.120;2023-03-20T09:53:46;11.98;;;6.13;;
79047;SDS011;68680;50.764;6.120;2023-03-20T09:56:18;16.02;;;6.38;;
79047;SDS011;68680;50.764;6.120;2023-03-20T09:58:51;13.38;;;5.63;;
79047;SDS011;68680;50.764;6.120;2023-03-20T10:01:21;12.90;;;6.47;;
79047;SDS011;68680;50.764;6.120;2023-03-20T10:03:52;15.27;;;6.20;;
79047;SDS011;68680;50.764;6.120;2023-03-20T10:06:22;9.77;;;6.03;;
79047;SDS011;68680;50.764;6.120;2023-03-20T10:08:49;15.07;;;6.45;;
79047;SDS011;68680;50.764;6.120;2023-03-20T10:11:19;12.63;;;6.88;;
79047;SDS011;68680;50.764;6.120;2023-03-20T10:14:06;10.00;;;5.45;;
79047;SDS011;68680;50.764;6.120;2023-03-20T10:16:48;12.85;;;5.65;;
79047;SDS011;68680;50.764;6.120;2023-03-20T10:19:28;18.48;;;5.82;;
79047;SDS011;68680;50.764;6.120;2023-03-20T10:21:56;11.15;;;5.45;;
79047;SDS011;68680;50.764;6.120;2023-03-20T10:24:33;12.05;;;5.25;;
79047;SDS011;68680;50.764;6.120;2023-03-20T10:27:09;12.70;;;5.68;;
79047;SDS011;68680;50.764;6.120;2023-03-20T10:29:47;9.68;;;5.25;;
79047;SDS011;68680;50.764;6.120;2023-03-20T10:32:28;11.82;;;5.25;;
79047;SDS011;68680;50.764;6.120;2023-03-20T10:35:08;12.15;;;5.57;;
79047;SDS011;68680;50.764;6.120;2023-03-20T10:37:54;8.48;;;5.22;;
79047;SDS011;68680;50.764;6.120;2023-03-20T10:40:36;11.85;;;5.28;;
79047;SDS011;68680;50.764;6.120;2023-03-20T10:43:07;10.15;;;4.30;;
79047;SDS011;68680;50.764;6.120;2023-03-20T10:45:41;10.25;;;4.93;;
79047;SDS011;68680;50.764;6.120;2023-03-20T10:50:45;7.53;;;4.78;;
79047;SDS011;68680;50.764;6.120;2023-03-20T10:53:22;14.13;;;5.22;;
79047;SDS011;68680;50.764;6.120;2023-03-20T10:55:58;12.63;;;4.75;;
79047;SDS011;68680;50.764;6.120;2023-03-20T10:58:30;9.15;;;4.60;;
79047;SDS011;68680;50.764;6.120;2023-03-20T11:01:03;10.70;;;4.80;;
79047;SDS011;68680;50.764;6.120;2023-03-20T11:03:30;12.25;;;4.75;;
79047;SDS011;68680;50.764;6.120;2023-03-20T11:05:58;52.67;;;21.40;;
79047;SDS011;68680;50.764;6.120;2023-03-20T11:08:29;14.70;;;7.63;;
79047;SDS011;68680;50.764;6.120;2023-03-20T11:11:02;10.32;;;4.40;;
79047;SDS011;68680;50.764;6.120;2023-03-20T11:13:30;13.38;;;5.38;;
79047;SDS011;68680;50.764;6.120;2023-03-20T11:16:06;10.73;;;4.55;;
79047;SDS011;68680;50.764;6.120;2023-03-20T11:18:40;10.68;;;5.07;;
79047;SDS011;68680;50.764;6.120;2023-03-20T11:21:07;11.20;;;4.47;;
79047;SDS011;68680;50.764;6.120;2023-03-20T11:23:39;16.85;;;5.93;;
79047;SDS011;68680;50.764;6.120;2023-03-20T11:26:07;11.85;;;4.18;;
79047;SDS011;68680;50.764;6.120;2023-03-20T11:28:38;12.50;;;5.32;;
79047;SDS011;68680;50.764;6.120;2023-03-20T11:31:13;20.55;;;5.78;;
79047;SDS011;68680;50.764;6.120;2023-03-20T11:33:44;12.55;;;4.57;;
79047;SDS011;68680;50.764;6.120;2023-03-20T11:36:21;11.35;;;4.63;;
79047;SDS011;68680;50.764;6.120;2023-03-20T11:38:50;11.77;;;4.78;;
79047;SDS011;68680;50.764;6.120;2023-03-20T11:41:25;12.25;;;5.47;;
79047;SDS011;68680;50.764;6.120;2023-03-20T11:43:53;15.07;;;5.13;;
79047;SDS011;68680;50.764;6.120;2023-03-20T11:46:19;9.55;;;4.25;;
79047;SDS011;68680;50.764;6.120;2023-03-20T11:49:00;12.70;;;4.90;;
79047;SDS011;68680;50.764;6.120;2023-03-20T11:51:30;14.10;;;5.00;;
79047;SDS011;68680;50.764;6.120;2023-03-20T11:53:59;10.65;;;4.70;;
79047;SDS011;68680;50.764;6.120;2023-03-20T11:56:29;10.98;;;5.72;;
79047;SDS011;68680;50.764;6.120;2023-03-20T11:58:57;11.80;;;5.57;;
79047;SDS011;68680;50.764;6.120;2023-03-20T12:01:28;9.85;;;4.68;;
79047;SDS011;68680;50.764;6.120;2023-03-20T12:04:04;8.77;;;5.15;;
79047;SDS011;68680;50.764;6.120;2023-03-20T12:06:38;15.00;;;4.78;;
79047;SDS011;68680;50.764;6.120;2023-03-20T12:09:11;14.40;;;4.88;;
79047;SDS011;68680;50.764;6.120;2023-03-20T12:11:57;9.98;;;4.57;;
79047;SDS011;68680;50.764;6.120;2023-03-20T12:14:29;8.50;;;4.43;;
79047;SDS011;68680;50.764;6.120;2023-03-20T12:17:11;8.43;;;4.72;;
79047;SDS011;68680;50.764;6.120;2023-03-20T12:19:59;13.90;;;4.57;;
79047;SDS011;68680;50.764;6.120;2023-03-20T12:22:36;13.98;;;4.60;;
79047;SDS011;68680;50.764;6.120;2023-03-20T12:25:16;14.77;;;4.10;;
79047;SDS011;68680;50.764;6.120;2023-03-20T12:27:51;12.70;;;4.40;;
79047;SDS011;68680;50.764;6.120;2023-03-20T12:30:28;10.13;;;4.65;;
79047;SDS011;68680;50.764;6.120;2023-03-20T12:33:10;9.70;;;3.80;;
79047;SDS011;68680;50.764;6.120;2023-03-20T12:35:45;32.42;;;10.82;;
79047;SDS011;68680;50.764;6.120;2023-03-20T12:38:19;14.43;;;3.80;;
79047;SDS011;68680;50.764;6.120;2023-03-20T12:40:52;17.00;;;4.60;;
79047;SDS011;68680;50.764;6.120;2023-03-20T12:43:26;12.05;;;3.22;;
79047;SDS011;68680;50.764;6.120;2023-03-20T12:46:05;12.02;;;4.15;;
79047;SDS011;68680;50.764;6.120;2023-03-20T12:48:51;11.27;;;4.47;;
79047;SDS011;68680;50.764;6.120;2023-03-20T12:51:38;13.48;;;4.00;;
79047;SDS011;68680;50.764;6.120;2023-03-20T12:54:22;12.52;;;3.60;;
79047;SDS011;68680;50.764;6.120;2023-03-20T12:57:11;14.50;;;4.25;;
79047;SDS011;68680;50.764;6.120;2023-03-20T13:00:00;12.60;;;4.13;;
79047;SDS011;68680;50.764;6.120;2023-03-20T13:02:43;10.23;;;3.22;;
79047;SDS011;68680;50.764;6.120;2023-03-20T13:05:36;13.85;;;3.67;;
79047;SDS011;68680;50.764;6.120;2023-03-20T13:08:20;10.80;;;2.97;;
79047;SDS011;68680;50.764;6.120;2023-03-20T13:11:12;6.72;;;2.90;;
79047;SDS011;68680;50.764;6.120;2023-03-20T13:13:52;13.48;;;4.35;;
79047;SDS011;68680;50.764;6.120;2023-03-20T13:16:26;8.73;;;3.40;;
79047;SDS011;68680;50.764;6.120;2023-03-20T13:19:06;16.73;;;3.38;;
79047;SDS011;68680;50.764;6.120;2023-03-20T13:21:46;11.93;;;3.33;;
79047;SDS011;68680;50.764;6.120;2023-03-20T13:24:26;11.73;;;3.70;;
79047;SDS011;68680;50.764;6.120;2023-03-20T13:27:06;9.23;;;3.47;;
79047;SDS011;68680;50.764;6.120;2023-03-20T13:33:08;10.95;;;2.88;;
79047;SDS011;68680;50.764;6.120;2023-03-20T13:35:57;15.88;;;3.60;;
79047;SDS011;68680;50.764;6.120;2023-03-20T13:38:32;14.18;;;3.53;;
79047;SDS011;68680;50.764;6.120;2023-03-20T13:41:05;10.13;;;3.33;;
79047;SDS011;68680;50.764;6.120;2023-03-20T13:43:35;10.38;;;3.97;;
79047;SDS011;68680;50.764;6.120;2023-03-20T13:46:10;8.75;;;2.90;;
79047;SDS011;68680;50.764;6.120;2023-03-20T13:48:44;7.47;;;2.58;;
79047;SDS011;68680;50.764;6.120;2023-03-20T13:51:13;13.68;;;3.47;;
79047;SDS011;68680;50.764;6.120;2023-03-20T13:53:53;12.07;;;3.50;;
79047;SDS011;68680;50.764;6.120;2023-03-20T13:56:35;10.05;;;2.85;;
79047;SDS011;68680;50.764;6.120;2023-03-20T14:11:13;6.15;;;2.53;;
79047;SDS011;68680;50.764;6.120;2023-03-20T14:13:53;7.85;;;2.90;;
79047;SDS011;68680;50.764;6.120;2023-03-20T14:16:26;7.68;;;2.50;;
79047;SDS011;68680;50.764;6.120;2023-03-20T14:19:03;10.00;;;2.75;;
79047;SDS011;68680;50.764;6.120;2023-03-20T14:21:33;7.65;;;2.85;;
79047;SDS011;68680;50.764;6.120;2023-03-20T14:24:01;8.30;;;3.58;;
79047;SDS011;68680;50.764;6.120;2023-03-20T14:26:39;14.33;;;3.77;;
79047;SDS011;68680;50.764;6.120;2023-03-20T14:29:30;9.38;;;2.60;;
79047;SDS011;68680;50.764;6.120;2023-03-20T14:35:25;6.78;;;2.75;;
79047;SDS011;68680;50.764;6.120;2023-03-20T14:38:06;12.52;;;2.83;;
79047;SDS011;68680;50.764;6.120;2023-03-20T14:40:51;33.78;;;14.80;;
79047;SDS011;68680;50.764;6.120;2023-03-20T14:43:35;8.57;;;2.72;;
79047;SDS011;68680;50.764;6.120;2023-03-20T14:46:17;10.82;;;2.70;;
79047;SDS011;68680;50.764;6.120;2023-03-20T14:48:55;7.10;;;3.33;;
79047;SDS011;68680;50.764;6.120;2023-03-20T14:51:23;5.70;;;2.85;;
79047;SDS011;68680;50.764;6.120;2023-03-20T14:59:19;5.78;;;2.30;;
79047;SDS011;68680;50.764;6.120;2023-03-20T15:01:52;12.52;;;3.45;;
79047;SDS011;68680;50.764;6.120;2023-03-20T15:07:09;7.72;;;2.63;;
79047;SDS011;68680;50.764;6.120;2023-03-20T15:09:41;7.78;;;2.47;;
79047;SDS011;68680;50.764;6.120;2023-03-20T15:12:09;8.25;;;2.72;;
79047;SDS011;68680;50.764;6.120;2023-03-20T15:14:39;9.15;;;2.72;;
79047;SDS011;68680;50.764;6.120;2023-03-20T15:17:18;8.45;;;2.45;;
79047;SDS011;68680;50.764;6.120;2023-03-20T15:19:47;7.15;;;2.60;;
79047;SDS011;68680;50.764;6.120;2023-03-20T15:22:14;7.07;;;3.58;;
79047;SDS011;68680;50.764;6.120;2023-03-20T15:24:44;14.82;;;4.03;;
79047;SDS011;68680;50.764;6.120;2023-03-20T15:27:17;7.47;;;2.67;;
79047;SDS011;68680;50.764;6.120;2023-03-20T15:29:44;8.48;;;3.00;;
79047;SDS011;68680;50.764;6.120;2023-03-20T15:32:16;10.02;;;2.78;;
79047;SDS011;68680;50.764;6.120;2023-03-20T15:34:44;11.48;;;3.03;;